Accueil
METAR-TAF:

METAR-TAF

Aéroports :

Base aérienne 133 Nancy-Ochey

Nancy, France

latitude: 48-35N, longitude: 005-58E, altitude: 336 m

Observation

Le bulletin a été fait il y a 25 minutes, à 02:30 UTC
Vent 4 kt de nord/nord-est, variant entre nord et nord-est
Température 2°C
Humidité 80%
Pression 1022 hPa
Visibilité 10 km ou plus
Quelques nuages à une hauteur de 4600 ft
Nuages fragmentés à une hauteur de 17000 ft
Nuages fragmentés à une hauteur de 21000 ft

METAR: LFSO 170230Z AUTO 02004KT 350V050 9999 FEW046 BKN170 BKN210 02/M01 Q1022

Heure: 04:55 (02:55 UTC)

Prévision

Le bulletin a été fait il y a 18 heures et 55 minutes, à 08:00 UTC
Prévision valable du 16 à 09 UTC au 17 à 09 UTC
Vent 10 kt de nord-est avec des rafales jusqu'à 20 kt
Visibilité 10 km ou plus
Nuages fragmentés à une hauteur de 3000 ft

TAF: LFSO 160800Z 1609/1709 04010G20KT 9999 BKN030

Observations et prévisions météorologiques de plus de 4000 aéroports (messages METAR et TAF).

Les stations disponibles sont représentées par des disques jaunes et rouges sur la carte.

Passer la souris dessus pour voir le nom de la station.

Cliquer dessus pour voir les observations et prévisions météorologiques.

Pour changer de carte: cliquez sur les boutons verts avec une croix noire pour zoomer, sur le bouton vert avec un tiret pour effectuer un zoom arrière, ou sur les flèches vertes pour les cartes adjacentes.


METAR-TAF: